Time;durP1;ratioP1;P1;durP2;ratioP2;P2;SDS_P1;SDS_P2;PMS_P1;PMS_P2;Temp;Humidity;BMP_temperature;BMP_pressure;BME280_temperature;BME280_humidity;BME280_pressure;Samples;Min_cycle;Max_cycle;Signal;HPM_P1;HPM_P2
2021/11/02 00:00:10;;;;;;;;;;;6.10;1.40;;;7.51;100.00;94105.27;653252;212;25044;-72
2021/11/02 00:02:51;;;;;;;;;;;6.20;1.40;;;7.60;100.00;94096.41;652358;216;24822;-72
2021/11/02 00:05:33;;;;;;;;;;;6.20;1.40;;;7.60;100.00;94102.55;654361;216;25227;-73
2021/11/02 00:08:14;;;;;;;;;;;6.20;1.40;;;7.52;100.00;94105.30;653430;216;24852;-70
2021/11/02 00:10:55;;;;;;;;;;;6.20;1.40;;;7.45;100.00;94098.34;652696;212;24826;-73
2021/11/02 00:13:41;;;;;;;;;;;6.10;1.40;;;7.45;100.00;94098.83;652410;212;24893;-72
2021/11/02 00:16:26;;;;;;;;;;;6.10;1.40;;;7.35;100.00;94099.28;653364;212;24788;-72
2021/11/02 00:19:08;;;;;;;;;;;6.00;1.40;;;7.26;100.00;94103.13;653109;212;24819;-69
2021/11/02 00:21:54;;;;;;;;;;;6.00;1.40;;;7.20;100.00;94100.02;649223;215;24843;-72
2021/11/02 00:27:25;;;;;;;;;;;5.90;1.40;;;7.05;100.00;94101.48;651900;216;25410;-72
2021/11/02 00:30:08;;;;;;;;;;;5.90;1.40;;;6.96;100.00;94102.03;653486;216;24848;-72
2021/11/02 00:32:50;;;;;;;;;;;5.80;1.40;;;6.95;100.00;94103.72;653643;212;24766;-72
2021/11/02 00:35:51;;;;;;;;;;;5.90;1.40;;;6.89;100.00;94105.52;654016;212;24795;-72
2021/11/02 00:38:32;;;;;;;;;;;5.80;1.40;;;6.87;100.00;94107.17;652889;212;24837;-72
2021/11/02 00:41:13;;;;;;;;;;;5.90;1.40;;;6.84;100.00;94107.67;650448;212;25528;-72
2021/11/02 00:43:56;;;;;;;;;;;5.80;1.40;;;6.80;100.00;94112.42;651425;212;24846;-71
2021/11/02 00:46:36;;;;;;;;;;;5.80;1.40;;;6.79;100.00;94113.88;654075;216;24838;-72
2021/11/02 00:49:18;;;;;;;;;;;5.80;1.40;;;6.80;100.00;94108.89;654720;212;24815;-73
2021/11/02 00:51:59;;;;;;;;;;;5.70;1.40;;;6.78;100.00;94101.13;652070;212;24858;-73
2021/11/02 00:54:43;;;;;;;;;;;5.60;1.40;;;6.69;100.00;94097.38;652280;212;25412;-73
2021/11/02 00:57:24;;;;;;;;;;;5.60;1.40;;;6.67;100.00;94090.80;652795;212;24815;-71
2021/11/02 01:00:07;;;;;;;;;;;5.50;1.40;;;6.57;100.00;94089.91;653596;212;24859;-72
2021/11/02 01:02:49;;;;;;;;;;;5.40;1.40;;;6.49;100.00;94091.25;647303;214;25135;-72
2021/11/02 01:05:30;;;;;;;;;;;5.30;1.40;;;6.47;100.00;94085.17;652889;212;25278;-72
2021/11/02 01:08:11;;;;;;;;;;;5.20;1.40;;;6.43;100.00;94085.72;653058;216;24854;-72
2021/11/02 01:10:54;;;;;;;;;;;5.20;1.40;;;6.42;100.00;94083.25;651768;212;24821;-73
2021/11/02 01:13:35;;;;;;;;;;;5.20;1.40;;;6.41;100.00;94078.23;653149;212;24834;-72
2021/11/02 01:16:16;;;;;;;;;;;5.20;1.40;;;6.42;100.00;94069.20;647921;214;25198;-73
2021/11/02 01:18:57;;;;;;;;;;;5.20;1.40;;;6.40;100.00;94070.14;653068;212;24833;-73
2021/11/02 01:21:38;;;;;;;;;;;5.20;1.40;;;6.42;100.00;94070.61;653295;216;25411;-72
2021/11/02 01:24:21;;;;;;;;;;;5.20;1.40;;;6.39;100.00;94068.87;653532;212;24857;-72
2021/11/02 01:27:01;;;;;;;;;;;5.10;1.40;;;6.36;100.00;94063.52;652249;212;24819;-72
2021/11/02 01:29:43;;;;;;;;;;;5.10;1.40;;;6.30;100.00;94062.56;652668;212;25213;-72
2021/11/02 01:32:24;;;;;;;;;;;5.20;1.40;;;6.31;100.00;94067.48;651421;212;24710;-70
2021/11/02 01:35:53;;;;;;;0.40;0.20;;;5.10;1.40;;;6.31;100.00;94064.20;646564;216;31497;-71
2021/11/02 01:38:37;;;;;;;;;;;5.20;1.40;;;6.34;100.00;94061.16;653776;212;24820;-72
2021/11/02 01:41:22;;;;;;;;;;;5.20;1.40;;;6.29;100.00;94064.11;652978;212;24819;-73
2021/11/02 01:44:00;;;;;;;;;;;5.10;1.40;;;6.29;100.00;94055.83;652865;216;25234;-71
2021/11/02 01:46:44;;;;;;;;;;;5.20;1.40;;;6.28;100.00;94059.61;652547;212;24782;-73
2021/11/02 01:49:25;;;;;;;;;;;5.10;1.40;;;6.23;100.00;94056.21;653488;212;24764;-72
2021/11/02 01:52:06;;;;;;;;;;;5.10;1.40;;;6.21;100.00;94062.34;648251;216;25560;-72
2021/11/02 01:54:48;;;;;;;;;;;5.10;1.40;;;6.22;100.00;94059.71;651903;212;24853;-72
2021/11/02 01:57:29;;;;;;;;;;;5.00;1.40;;;6.15;100.00;94057.62;653338;212;24814;-72
2021/11/02 02:00:15;;;;;;;;;;;5.00;1.40;;;6.13;100.00;94058.23;653407;216;25335;-72
2021/11/02 02:03:02;;;;;;;;;;;5.00;1.40;;;6.12;100.00;94054.38;648318;215;24811;-72
2021/11/02 02:05:42;;;;;;;;;;;5.00;1.40;;;6.08;100.00;94053.03;648851;217;25428;-72
2021/11/02 02:08:43;;;;;;;;;;;5.00;1.40;;;6.07;100.00;94042.34;654257;212;24822;-72
2021/11/02 02:11:27;;;;;;;;;;;5.10;1.40;;;6.05;100.00;94038.31;652382;212;24826;-72
2021/11/02 02:14:11;;;;;;;;;;;5.10;1.40;;;6.02;100.00;94039.69;654304;212;24802;-70
2021/11/02 02:16:52;;;;;;;;;;;5.00;1.40;;;5.99;100.00;94039.30;653128;212;24822;-72
2021/11/02 02:19:49;;;;;;;;;;;5.00;1.40;;;5.96;100.00;94035.93;652880;212;24809;-71
2021/11/02 02:22:50;;;;;;;;;;;5.00;1.40;;;5.95;100.00;94034.66;652596;212;24750;-72
2021/11/02 02:25:58;;;;;;;;;;;4.90;1.40;;;5.91;100.00;94029.91;653433;216;24899;-73
2021/11/02 02:28:43;;;;;;;;;;;4.90;1.40;;;5.89;100.00;94022.78;652313;212;24826;-72
2021/11/02 02:31:24;;;;;;;;;;;4.90;1.40;;;5.88;100.00;94024.63;652711;212;24805;-70
2021/11/02 02:35:55;;;;;;;0.60;0.40;;;4.70;1.40;;;5.72;100.00;94020.50;647576;216;31474;-70
2021/11/02 02:38:36;;;;;;;;;;;4.60;1.40;;;5.63;100.00;94022.20;653654;216;24814;-73
2021/11/02 02:41:19;;;;;;;;;;;4.50;1.40;;;5.56;100.00;94021.56;642750;221;24892;-81
2021/11/02 02:44:06;;;;;;;;;;;4.40;1.40;;;5.47;100.00;94025.12;652154;212;24809;-72
2021/11/02 02:46:47;;;;;;;;;;;4.40;1.40;;;5.41;100.00;94031.34;653317;212;24754;-72
2021/11/02 02:49:29;;;;;;;;;;;4.40;1.40;;;5.38;100.00;94036.54;651942;212;24750;-72
2021/11/02 02:52:15;;;;;;;;;;;4.40;1.40;;;5.44;100.00;94032.87;626213;226;24889;-72
2021/11/02 02:54:57;;;;;;;;;;;4.50;1.40;;;5.48;100.00;94031.20;652754;216;25396;-72
2021/11/02 02:57:38;;;;;;;;;;;4.50;1.40;;;5.58;100.00;94024.97;654112;212;24788;-72
2021/11/02 03:00:19;;;;;;;;;;;4.70;1.40;;;5.66;100.00;94027.55;652782;216;25024;-72
2021/11/02 03:03:02;;;;;;;;;;;4.70;1.40;;;5.71;100.00;94025.96;654025;212;25305;-79
2021/11/02 03:05:50;;;;;;;;;;;4.80;1.40;;;5.69;100.00;94026.83;653228;212;24742;-70
2021/11/02 03:08:31;;;;;;;;;;;4.70;1.40;;;5.66;100.00;94027.51;648547;217;24839;-72
2021/11/02 03:11:12;;;;;;;;;;;4.70;1.40;;;5.64;100.00;94022.55;652645;216;24890;-72
2021/11/02 03:13:58;;;;;;;;;;;4.60;1.40;;;5.60;100.00;94030.18;652696;216;24825;-72
2021/11/02 03:16:50;;;;;;;;;;;4.60;1.40;;;5.57;100.00;94025.19;654108;212;24752;-73
2021/11/02 03:19:53;;;;;;;;;;;4.50;1.40;;;5.52;100.00;94024.28;653831;216;25393;-72
2021/11/02 03:44:46;;;;;;;;;;;4.20;1.40;;;5.26;100.00;94031.10;652792;212;24822;-72
2021/11/02 03:50:13;;;;;;;;;;;4.10;1.40;;;5.25;100.00;94028.38;653915;212;24843;-70
2021/11/02 03:55:44;;;;;;;;;;;4.10;1.40;;;5.24;100.00;94031.25;652874;216;24803;-69
2021/11/02 03:58:24;;;;;;;;;;;4.10;1.40;;;5.28;100.00;94031.63;622186;224;24866;-72
2021/11/02 04:01:19;;;;;;;;;;;4.20;1.40;;;5.38;100.00;94027.14;648097;217;25431;-73
2021/11/02 04:23:47;;;;;;;;;;;4.00;1.40;;;5.06;100.00;94027.14;653533;212;24905;-72
2021/11/02 04:36:35;;;;;;;0.40;0.30;;;4.20;1.40;;;5.09;100.00;94034.59;646698;216;31532;-73
2021/11/02 04:47:16;;;;;;;;;;;4.00;1.40;;;4.93;100.00;94028.93;648189;215;24837;-72
2021/11/02 05:47:08;;;;;;;;;;;4.60;1.40;;;5.72;100.00;94048.25;649413;216;24806;-72
2021/11/02 05:58:29;;;;;;;;;;;4.90;1.40;;;5.85;100.00;94043.12;652527;212;24728;-72
2021/11/02 06:01:12;;;;;;;;;;;5.00;1.40;;;5.96;100.00;94045.29;652174;212;24812;-72
2021/11/02 06:03:55;;;;;;;;;;;5.20;1.40;;;6.02;100.00;94051.00;653544;212;24815;-73
2021/11/02 06:06:49;;;;;;;;;;;5.20;1.40;;;6.05;100.00;94046.70;652775;212;25243;-73
2021/11/02 06:09:33;;;;;;;;;;;5.20;1.40;;;6.11;100.00;94043.53;652894;212;24887;-72
2021/11/02 06:27:42;;;;;;;;;;;5.40;1.40;;;6.25;100.00;94040.39;653616;216;25390;-73
2021/11/02 06:29:05;;;;;;;;;;;5.50;1.40;;;6.24;100.00;94045.90;652437;216;24720;-72
2021/11/02 06:31:54;;;;;;;;;;;5.50;1.40;;;6.23;100.00;94049.25;653167;212;25133;-72
2021/11/02 06:36:05;;;;;;;;;;;5.60;1.40;;;6.26;100.00;94047.34;652388;216;24920;-73
2021/11/02 06:44:37;;;;;;;;;;;5.80;1.40;;;6.44;100.00;94047.52;652262;216;25146;-73
2021/11/02 06:50:04;;;;;;;;;;;6.00;1.40;;;6.51;100.00;94046.47;652653;216;24814;-73
2021/11/02 06:53:00;;;;;;;;;;;6.00;1.40;;;6.60;100.00;94050.77;652195;216;25710;-72
2021/11/02 06:58:28;;;;;;;;;;;6.00;1.40;;;6.75;100.00;94057.55;652265;216;24740;-72
2021/11/02 07:10:56;;;;;;;;;;;6.00;1.40;;;6.73;100.00;94058.30;651753;212;25398;-73
2021/11/02 07:17:54;;;;;;;;;;;6.20;1.40;;;6.88;100.00;94073.32;653033;216;24850;-72
2021/11/02 07:20:36;;;;;;;;;;;6.20;1.40;;;6.94;100.00;94071.38;653467;212;24916;-73
2021/11/02 07:23:24;;;;;;;;;;;6.30;1.40;;;6.99;100.00;94066.79;652615;216;24739;-73
2021/11/02 07:26:09;;;;;;;;;;;6.30;1.40;;;6.96;100.00;94070.19;652437;216;24836;-73
2021/11/02 07:29:28;;;;;;;;;;;6.40;1.40;;;7.00;100.00;94071.52;651223;216;24826;-74
2021/11/02 08:47:12;;;;;;;0.50;0.30;;;12.20;1.40;;;12.44;100.00;94086.83;631405;222;31687;-72
2021/11/02 08:49:50;;;;;;;0.50;0.40;;;13.70;1.40;;;12.81;100.00;94091.84;646436;212;31538;-72
2021/11/02 08:52:35;;;;;;;0.40;0.30;;;13.30;1.40;;;12.87;100.00;94088.77;646259;212;42072;-72
2021/11/02 08:55:17;;;;;;;0.40;0.30;;;13.10;1.40;;;14.44;100.00;94084.36;646657;212;31512;-72
2021/11/02 08:58:01;;;;;;;1.10;0.30;;;14.80;1.40;;;13.75;98.50;94078.37;646491;216;42734;-71
2021/11/02 09:00:43;;;;;;;0.70;0.30;;;13.90;1.40;;;14.18;99.80;94082.95;645470;212;32701;-71
2021/11/02 09:03:28;;;;;;;0.70;0.30;;;14.20;1.40;;;14.55;100.00;94077.95;646166;216;32021;-71
2021/11/02 09:06:15;;;;;;;0.40;0.30;;;14.20;1.40;;;14.40;95.55;94080.63;646525;212;31480;-71
2021/11/02 09:08:55;;;;;;;0.40;0.30;;;14.60;1.40;;;13.84;92.99;94086.42;647342;216;31496;-71
2021/11/02 09:11:37;;;;;;;0.40;0.30;;;13.40;1.40;;;14.00;93.61;94091.70;646979;216;31600;-71
2021/11/02 09:14:20;;;;;;;0.75;0.47;;;14.00;1.40;;;15.00;92.30;94090.06;647204;212;31510;-71
2021/11/02 09:17:01;;;;;;;1.60;0.30;;;14.70;1.40;;;15.55;86.81;94081.45;617096;225;32348;-71
2021/11/02 09:19:43;;;;;;;0.70;0.40;;;14.60;1.40;;;15.11;84.66;94078.33;646590;212;31578;-72
2021/11/02 09:22:25;;;;;;;0.55;0.20;;;14.70;1.40;;;15.17;85.19;94080.13;647397;213;31847;-71
2021/11/02 09:25:10;;;;;;;0.40;0.30;;;14.40;1.40;;;14.36;86.09;94080.16;645592;216;31505;-72
2021/11/02 09:27:51;;;;;;;0.50;0.30;;;14.50;1.40;;;15.06;82.90;94078.13;646722;212;31346;-72
2021/11/02 09:30:33;;;;;;;0.80;0.40;;;14.70;1.40;;;14.88;83.32;94069.76;646570;216;32051;-73
2021/11/02 09:38:48;;;;;;;0.80;0.50;;;15.80;1.40;;;16.16;76.30;94081.72;647099;212;32685;-71
2021/11/02 09:41:54;;;;;;;0.55;0.20;;;15.50;1.40;;;15.85;77.70;94079.50;642007;216;31659;-72
2021/11/02 09:44:56;;;;;;;0.63;0.40;;;15.40;1.40;;;16.42;74.14;94069.83;619302;222;31994;-72
2021/11/02 09:48:09;;;;;;;0.40;0.20;;;15.90;1.40;;;17.04;70.12;94066.91;644593;212;42167;-71
2021/11/02 09:51:15;;;;;;;0.70;0.30;;;15.90;1.40;;;17.56;62.80;94062.84;646280;216;31571;-71
2021/11/02 09:54:44;;;;;;;0.40;0.20;;;16.00;1.40;;;16.95;64.14;94066.59;647017;212;31746;-71
2021/11/02 09:58:09;;;;;;;0.50;0.30;;;15.60;1.40;;;16.29;66.77;94067.80;632171;221;31656;-71
2021/11/02 10:01:00;;;;;;;1.10;0.20;;;16.10;1.40;;;17.61;64.04;94053.60;646196;212;31566;-71
2021/11/02 10:04:09;;;;;;;0.80;0.22;;;16.60;1.40;;;19.38;61.42;94045.30;646314;216;31783;-72
2021/11/02 10:07:17;;;;;;;1.30;0.40;;;18.10;1.40;;;19.25;55.96;94051.57;645894;216;32619;-72
2021/11/02 10:10:01;;;;;;;0.70;0.30;;;17.10;1.40;;;17.47;59.59;94047.16;647155;212;32284;-71
2021/11/02 10:12:59;;;;;;;1.40;0.40;;;16.90;1.40;;;19.72;56.52;94045.52;645664;212;31486;-71
2021/11/02 10:16:03;;;;;;;0.40;0.20;;;18.70;1.40;;;19.46;52.17;94052.02;646105;216;42204;-71
2021/11/02 10:19:05;;;;;;;0.40;0.20;;;16.90;1.40;;;18.72;53.28;94047.58;645768;216;31504;-71
2021/11/02 10:21:54;;;;;;;0.40;0.20;;;17.30;1.40;;;20.44;51.75;94050.83;647310;212;32413;-71
2021/11/02 10:24:49;;;;;;;0.70;0.30;;;17.80;1.40;;;19.73;51.96;94044.70;646546;212;31648;-71
2021/11/02 10:30:34;;;;;;;0.45;0.30;;;16.70;1.40;;;18.50;52.45;94055.23;646892;216;31478;-71
2021/11/02 10:36:22;;;;;;;0.50;0.40;;;15.10;1.40;;;17.53;59.94;94052.50;620791;226;31841;-74
2021/11/02 10:44:43;;;;;;;0.40;0.20;;;18.70;1.40;;;20.18;48.26;94049.71;620783;225;31861;-71
2021/11/02 10:47:32;;;;;;;0.45;0.30;;;15.70;1.40;;;16.31;61.20;94057.06;647416;216;31483;-70
2021/11/02 10:50:13;;;;;;;1.90;0.40;;;13.60;1.40;;;14.97;71.80;94053.40;645757;216;31571;-71
2021/11/02 10:52:57;;;;;;;1.17;0.50;;;12.80;1.40;;;14.19;71.39;94052.98;646660;212;31896;-70
2021/11/02 10:55:49;;;;;;;0.50;0.30;;;12.30;1.40;;;13.82;73.18;94064.36;647042;212;42094;-70
2021/11/02 10:58:44;;;;;;;0.50;0.30;;;12.10;1.40;;;13.70;73.49;94063.09;646621;212;31462;-71
2021/11/02 11:01:25;;;;;;;1.20;0.30;;;12.20;1.40;;;13.94;76.84;94064.11;647483;212;31534;-71
2021/11/02 11:04:07;;;;;;;0.77;0.40;;;13.40;1.40;;;16.75;65.94;94057.97;645786;212;31488;-70
2021/11/02 11:06:51;;;;;;;0.65;0.40;;;16.40;1.40;;;16.42;63.56;94062.77;645251;216;31539;-71
2021/11/02 11:09:33;;;;;;;1.50;0.50;;;13.70;1.40;;;14.31;72.17;94069.69;646335;212;31500;-70
2021/11/02 11:12:15;;;;;;;0.40;0.20;;;12.30;1.40;;;13.00;78.23;94071.97;647924;216;31526;-70
2021/11/02 11:14:59;;;;;;;0.50;0.20;;;11.50;1.40;;;12.33;82.09;94068.95;647662;216;41842;-71
2021/11/02 11:20:15;;;;;;;0.40;0.20;;;10.90;1.40;;;12.12;87.91;94087.41;618752;226;31825;-70
2021/11/02 11:22:57;;;;;;;0.77;0.35;;;10.60;1.40;;;11.68;92.59;94088.32;646448;216;42091;-70
2021/11/02 11:28:19;;;;;;;0.40;0.30;;;9.90;1.40;;;10.46;100.00;94086.91;646444;216;31505;-71
2021/11/02 11:31:00;;;;;;;0.40;0.20;;;9.60;1.40;;;9.97;100.00;94088.23;646114;212;42435;-71
2021/11/02 11:35:52;;;;;;;1.20;0.60;;;9.10;1.40;;;9.64;100.00;94084.60;640820;217;31483;-70
2021/11/02 11:38:35;;;;;;;0.70;0.30;;;9.10;1.40;;;9.66;100.00;94076.58;645339;216;31496;-70
2021/11/02 11:41:20;;;;;;;0.40;0.20;;;9.10;1.40;;;9.54;100.00;94076.91;643288;216;31644;-70
2021/11/02 11:44:02;;;;;;;0.40;0.20;;;9.20;1.40;;;9.77;100.00;94087.35;646917;216;31497;-70
2021/11/02 11:46:51;;;;;;;0.40;0.20;;;9.30;1.40;;;9.70;100.00;94096.64;645995;212;31468;-71
2021/11/02 11:49:34;;;;;;;0.60;0.40;;;9.30;1.40;;;9.75;100.00;94100.34;646953;212;31571;-70
2021/11/02 11:52:15;;;;;;;0.70;0.30;;;9.40;1.40;;;10.01;100.00;94095.87;646368;216;31476;-72
2021/11/02 11:54:57;;;;;;;0.50;0.30;;;10.10;1.40;;;10.67;100.00;94089.54;646709;216;31509;-70
2021/11/02 12:00:11;;;;;;;0.60;0.30;;;11.10;1.40;;;11.88;100.00;94093.52;647146;212;31523;-70
2021/11/02 12:02:57;;;;;;;0.90;0.40;;;11.20;1.40;;;11.73;100.00;94090.61;648171;216;31587;-71
2021/11/02 12:05:42;;;;;;;1.98;0.40;;;10.90;1.40;;;11.84;100.00;94093.79;646113;216;33968;-69
2021/11/02 12:08:24;;;;;;;0.40;0.20;;;10.70;1.40;;;11.55;100.00;94087.92;644715;216;31552;-69
2021/11/02 12:11:06;;;;;;;0.60;0.40;;;10.60;1.40;;;11.51;100.00;94085.47;646034;212;31540;-70
2021/11/02 12:13:48;;;;;;;0.50;0.30;;;10.60;1.40;;;11.55;100.00;94081.94;647323;216;32062;-69
2021/11/02 12:16:38;;;;;;;0.40;0.30;;;10.60;1.40;;;11.26;100.00;94085.13;646017;216;31562;-70
2021/11/02 12:19:47;;;;;;;0.40;0.20;;;10.60;1.40;;;11.17;100.00;94078.38;646594;216;31544;-70
2021/11/02 12:22:47;;;;;;;0.40;0.30;;;10.60;1.40;;;11.07;100.00;94086.18;646046;216;31929;-71
2021/11/02 12:25:35;;;;;;;0.40;0.30;;;10.20;1.40;;;10.56;100.00;94081.77;645927;216;42292;-70
2021/11/02 12:28:27;;;;;;;0.40;0.30;;;9.90;1.40;;;10.62;100.00;94079.53;646338;212;31804;-69
2021/11/02 12:31:10;;;;;;;0.50;0.40;;;9.80;1.40;;;10.44;100.00;94089.41;646933;216;31493;-70
2021/11/02 12:35:52;;;;;;;0.60;0.30;;;9.80;1.40;;;10.52;100.00;94079.20;646652;216;31814;-72
2021/11/02 12:38:37;;;;;;;0.40;0.30;;;9.80;1.40;;;10.43;100.00;94079.48;645600;216;31596;-71
2021/11/02 12:41:21;;;;;;;0.50;0.30;;;9.80;1.40;;;10.62;100.00;94081.84;641823;216;32281;-70
2021/11/02 12:44:06;;;;;;;0.70;0.40;;;9.90;1.40;;;10.49;100.00;94086.25;646456;216;31619;-70
2021/11/02 12:46:48;;;;;;;0.40;0.20;;;9.80;1.40;;;10.28;100.00;94079.55;646980;216;32230;-70
2021/11/02 12:49:47;;;;;;;0.50;0.30;;;9.60;1.40;;;10.28;100.00;94082.68;646055;216;31683;-71
2021/11/02 12:52:31;;;;;;;0.40;0.30;;;9.60;1.40;;;10.26;100.00;94081.69;646838;216;31508;-70
2021/11/02 12:55:13;;;;;;;0.40;0.20;;;9.70;1.40;;;10.36;100.00;94082.84;644556;216;31492;-72
2021/11/02 12:57:57;;;;;;;0.40;0.30;;;9.70;1.40;;;10.27;100.00;94082.91;647038;216;32102;-69
2021/11/02 13:00:59;;;;;;;0.90;0.40;;;9.70;1.40;;;10.28;100.00;94076.58;647579;216;31498;-71
2021/11/02 13:03:42;;;;;;;0.40;0.20;;;9.70;1.40;;;10.32;100.00;94076.55;645616;212;31495;-71
2021/11/02 13:06:26;;;;;;;0.40;0.30;;;9.60;1.40;;;10.31;100.00;94073.17;646601;216;31572;-70
2021/11/02 13:09:07;;;;;;;0.40;0.20;;;9.70;1.40;;;10.44;100.00;94069.02;645285;216;31489;-70
2021/11/02 13:12:00;;;;;;;2.50;0.30;;;9.80;1.40;;;10.62;100.00;94067.29;646677;216;31576;-73
2021/11/02 13:14:43;;;;;;;0.40;0.20;;;9.90;1.40;;;10.75;100.00;94072.94;645940;212;31579;-71
2021/11/02 13:17:28;;;;;;;1.80;0.40;;;10.00;1.40;;;10.93;100.00;94069.41;646438;216;33240;-72
2021/11/02 13:20:11;;;;;;;0.40;0.20;;;10.10;1.40;;;11.06;100.00;94067.34;646500;216;32055;-71
2021/11/02 13:22:53;;;;;;;0.40;0.30;;;10.20;1.40;;;11.01;100.00;94070.44;646370;216;31497;-70
2021/11/02 13:25:36;;;;;;;0.40;0.20;;;10.50;1.40;;;11.45;100.00;94073.22;645169;216;32126;-71
2021/11/02 13:28:17;;;;;;;0.40;0.20;;;11.20;1.40;;;12.01;100.00;94067.12;647112;212;42109;-71
2021/11/02 13:30:59;;;;;;;0.40;0.20;;;11.70;1.40;;;12.10;100.00;94076.19;645813;216;42102;-71
2021/11/02 13:36:07;;;;;;;0.50;0.20;;;11.10;1.40;;;11.40;100.00;94075.75;646220;212;42118;-72
2021/11/02 13:38:49;;;;;;;0.40;0.20;;;10.30;1.40;;;10.99;100.00;94073.63;648092;216;31508;-73
2021/11/02 13:41:31;;;;;;;0.50;0.20;;;10.00;1.40;;;11.43;100.00;94080.78;641330;212;31685;-72
2021/11/02 13:44:15;;;;;;;0.40;0.20;;;10.80;1.40;;;11.69;100.00;94078.80;646335;212;31656;-71
2021/11/02 13:46:59;;;;;;;0.50;0.22;;;10.90;1.40;;;11.83;100.00;94083.16;645492;216;31520;-73
2021/11/02 13:49:46;;;;;;;0.40;0.20;;;11.10;1.40;;;11.40;100.00;94085.77;618913;226;31864;-70
2021/11/02 13:52:26;;;;;;;0.40;0.20;;;10.70;1.40;;;11.30;100.00;94078.27;645568;216;31537;-72
2021/11/02 13:55:09;;;;;;;0.40;0.23;;;10.90;1.40;;;11.72;100.00;94073.70;646188;216;31508;-70
2021/11/02 13:57:54;;;;;;;0.40;0.20;;;11.00;1.40;;;11.75;98.14;94074.33;646060;213;31949;-69
2021/11/02 14:00:36;;;;;;;0.40;0.20;;;10.90;1.40;;;11.70;100.00;94070.00;645830;216;42883;-70
2021/11/02 14:03:18;;;;;;;0.50;0.20;;;11.20;1.40;;;12.24;100.00;94072.73;645140;212;31800;-70
2021/11/02 14:06:00;;;;;;;1.70;0.32;;;11.30;1.40;;;11.89;100.00;94073.45;646894;216;31871;-70
2021/11/02 14:08:41;;;;;;;0.40;0.20;;;10.80;1.40;;;11.59;100.00;94075.28;645891;216;31530;-73
2021/11/02 14:11:24;;;;;;;0.57;0.30;;;10.90;1.40;;;11.51;99.32;94082.45;644565;216;38407;-69
2021/11/02 14:14:09;;;;;;;0.40;0.20;;;10.60;1.40;;;11.42;100.00;94084.19;645959;216;42159;-70
2021/11/02 14:16:54;;;;;;;0.50;0.30;;;10.60;1.40;;;11.50;100.00;94081.14;630361;220;31888;-70
2021/11/02 14:19:37;;;;;;;0.40;0.20;;;10.90;1.40;;;11.44;100.00;94091.37;645737;212;31496;-70
2021/11/02 14:22:38;;;;;;;0.50;0.20;;;10.80;1.40;;;11.28;100.00;94080.95;646744;216;31889;-71
2021/11/02 14:25:21;;;;;;;0.45;0.30;;;10.40;1.40;;;11.07;100.00;94070.48;647103;216;31462;-72
2021/11/02 14:28:03;;;;;;;1.40;0.30;;;10.30;1.40;;;11.06;100.00;94071.65;645420;212;42102;-70
2021/11/02 14:30:45;;;;;;;0.80;0.33;;;10.30;1.40;;;11.17;100.00;94077.89;619327;222;32583;-71
2021/11/02 14:35:53;;;;;;;0.40;0.30;;;10.30;1.40;;;10.77;100.00;94071.77;647106;216;32233;-71
2021/11/02 14:38:44;;;;;;;0.40;0.20;;;9.90;1.40;;;10.69;100.00;94080.81;619642;226;31805;-70
2021/11/02 14:41:31;;;;;;;0.40;0.30;;;9.90;1.40;;;10.58;100.00;94074.62;642869;212;31692;-70
2021/11/02 14:44:24;;;;;;;0.40;0.20;;;9.80;1.40;;;10.55;100.00;94075.38;645881;216;31636;-71
2021/11/02 14:47:05;;;;;;;0.40;0.20;;;9.80;1.40;;;10.46;100.00;94080.69;646715;212;31499;-71
2021/11/02 14:49:47;;;;;;;0.40;0.20;;;9.80;1.40;;;10.61;100.00;94079.77;646310;216;31533;-72
2021/11/02 14:52:32;;;;;;;1.00;0.30;;;9.90;1.40;;;10.62;100.00;94082.90;647099;212;32649;-70
2021/11/02 14:55:13;;;;;;;0.40;0.20;;;9.70;1.40;;;10.50;100.00;94078.45;647076;216;31572;-72
2021/11/02 14:57:55;;;;;;;0.50;0.30;;;9.70;1.40;;;10.31;100.00;94080.97;630488;222;31745;-71
2021/11/02 15:00:37;;;;;;;0.40;0.30;;;9.50;1.40;;;10.25;100.00;94077.49;646152;216;31493;-69
2021/11/02 15:03:19;;;;;;;0.40;0.20;;;9.30;1.40;;;9.98;100.00;94081.00;619274;222;31792;-71
2021/11/02 15:06:07;;;;;;;0.80;0.40;;;9.10;1.40;;;9.67;100.00;94087.99;646492;216;31532;-70
2021/11/02 15:08:52;;;;;;;0.40;0.20;;;8.80;1.40;;;9.53;100.00;94087.50;645431;213;33515;-69
2021/11/02 15:11:33;;;;;;;0.40;0.20;;;8.70;1.40;;;9.46;100.00;94090.78;647100;216;32266;-69
2021/11/02 15:14:15;;;;;;;0.40;0.20;;;8.70;1.40;;;9.36;100.00;94094.09;645271;216;31500;-71
2021/11/02 15:16:58;;;;;;;0.40;0.20;;;8.50;1.40;;;9.28;100.00;94088.06;646316;212;31504;-70
2021/11/02 15:19:39;;;;;;;0.40;0.20;;;8.50;1.40;;;9.27;100.00;94081.12;646663;216;31507;-72
2021/11/02 15:22:26;;;;;;;0.40;0.20;;;8.30;1.40;;;9.21;100.00;94086.06;646759;212;31773;-72
2021/11/02 15:25:07;;;;;;;0.40;0.22;;;8.20;1.40;;;8.97;100.00;94089.20;646795;213;32081;-72
2021/11/02 15:27:48;;;;;;;0.40;0.20;;;8.10;1.40;;;8.94;100.00;94094.72;647301;216;32283;-71
2021/11/02 15:30:30;;;;;;;0.40;0.40;;;8.10;1.40;;;8.83;100.00;94099.17;645051;212;31500;-71
2021/11/02 15:35:52;;;;;;;0.60;0.30;;;7.70;1.40;;;8.50;100.00;94112.83;647627;212;31496;-70
2021/11/02 15:38:33;;;;;;;0.40;0.20;;;7.60;1.40;;;8.43;100.00;94110.76;645750;216;31732;-72
2021/11/02 15:41:20;;;;;;;0.90;0.30;;;7.70;1.40;;;8.52;100.00;94106.87;643227;212;32078;-70
2021/11/02 15:44:04;;;;;;;0.40;0.40;;;7.70;1.40;;;8.41;100.00;94113.22;645606;216;31561;-73
2021/11/02 15:46:45;;;;;;;0.50;0.30;;;7.50;1.40;;;8.28;100.00;94120.95;645937;212;32069;-71
2021/11/02 15:49:31;;;;;;;0.40;0.20;;;7.50;1.40;;;8.28;100.00;94121.92;619250;222;31928;-72
2021/11/02 15:52:13;;;;;;;0.40;0.20;;;7.50;1.40;;;8.24;100.00;94123.80;646239;216;31656;-71
2021/11/02 15:55:02;;;;;;;0.40;0.20;;;7.60;1.40;;;8.25;100.00;94124.74;646206;216;31536;-70
2021/11/02 15:57:47;;;;;;;0.60;0.33;;;7.50;1.40;;;8.35;100.00;94128.45;646355;212;32077;-71
2021/11/02 16:00:33;;;;;;;0.60;0.40;;;7.70;1.40;;;8.51;100.00;94124.52;644881;216;32434;-70
2021/11/02 16:03:14;;;;;;;0.40;0.30;;;7.70;1.40;;;8.43;100.00;94123.40;646713;216;31669;-70
2021/11/02 16:05:56;;;;;;;0.40;0.30;;;7.60;1.40;;;8.54;100.00;94125.98;645948;216;31481;-72
2021/11/02 16:08:38;;;;;;;0.40;0.30;;;7.80;1.40;;;8.52;100.00;94123.84;619674;226;32329;-70
2021/11/02 16:11:19;;;;;;;0.40;0.20;;;7.80;1.40;;;8.33;100.00;94128.75;646301;216;31526;-70
2021/11/02 16:14:05;;;;;;;0.40;0.20;;;7.70;1.40;;;8.40;100.00;94133.34;646194;212;31521;-69
2021/11/02 16:16:46;;;;;;;0.40;0.20;;;7.70;1.40;;;8.28;100.00;94139.47;645911;212;31917;-69
2021/11/02 16:19:31;;;;;;;0.47;0.30;;;7.60;1.40;;;8.16;100.00;94143.19;645050;212;32078;-72
2021/11/02 16:22:13;;;;;;;0.40;0.30;;;7.40;1.40;;;8.29;100.00;94143.38;647272;216;32360;-71
2021/11/02 16:25:00;;;;;;;0.40;0.20;;;7.60;1.40;;;8.56;100.00;94147.19;647318;216;32106;-72
2021/11/02 16:27:42;;;;;;;0.40;0.30;;;7.90;1.40;;;8.51;100.00;94144.45;645991;216;32012;-70
2021/11/02 16:30:23;;;;;;;0.40;0.30;;;7.80;1.40;;;8.40;100.00;94146.75;646210;216;31470;-71
2021/11/02 16:35:52;;;;;;;0.40;0.22;;;7.70;1.40;;;8.30;100.00;94148.09;646851;216;31505;-71
2021/11/02 16:38:34;;;;;;;0.40;0.40;;;7.60;1.40;;;8.23;100.00;94140.41;647358;216;32178;-72
2021/11/02 16:41:22;;;;;;;0.40;0.30;;;7.50;1.40;;;8.31;100.00;94143.00;647603;216;32112;-70
2021/11/02 16:44:04;;;;;;;0.40;0.40;;;7.60;1.40;;;8.28;100.00;94136.44;645863;212;31625;-72
2021/11/02 16:46:47;;;;;;;0.40;0.30;;;7.60;1.40;;;8.32;100.00;94145.77;645942;212;31631;-70
2021/11/02 16:49:28;;;;;;;0.90;0.60;;;7.60;1.40;;;8.41;100.00;94154.91;647355;216;31741;-72
2021/11/02 16:52:10;;;;;;;0.50;0.30;;;7.60;1.40;;;8.46;100.00;94155.49;619049;226;31972;-70
2021/11/02 16:54:51;;;;;;;1.00;0.40;;;7.60;1.40;;;8.49;100.00;94161.38;645996;216;31609;-71
2021/11/02 16:57:33;;;;;;;0.50;0.40;;;7.70;1.40;;;8.51;100.00;94166.60;635836;220;32950;-69
2021/11/02 17:00:15;;;;;;;0.40;0.20;;;7.60;1.40;;;8.32;100.00;94167.25;646302;212;32094;-71